createdAt,value
2022-09-03T00:02:16.083Z,18.01
2022-09-03T00:04:58.581Z,18.03
2022-09-03T00:08:21.548Z,18.04
2022-09-03T00:11:32.782Z,18.05
2022-09-03T00:14:07.239Z,18.06
2022-09-03T00:16:46.051Z,18.08
2022-09-03T00:19:21.237Z,18.09
2022-09-03T00:21:58.925Z,18.10
2022-09-03T00:24:33.901Z,18.12
2022-09-03T00:27:07.573Z,18.14
2022-09-03T00:29:46.343Z,18.16
2022-09-03T00:32:26.474Z,18.19
2022-09-03T00:35:07.824Z,18.19
2022-09-03T00:37:38.221Z,18.21
2022-09-03T00:40:23.229Z,18.23
2022-09-03T00:43:06.476Z,18.23
2022-09-03T00:46:06.197Z,18.21
2022-09-03T00:49:28.784Z,18.19
2022-09-03T00:52:15.127Z,18.17
2022-09-03T00:55:26.352Z,18.14
2022-09-03T00:58:30.716Z,18.12
2022-09-03T01:00:59.253Z,18.07
2022-09-03T01:04:07.724Z,18.04
2022-09-03T01:07:15.999Z,17.99
2022-09-03T01:10:27.415Z,18.00
2022-09-03T01:12:58.277Z,18.00
2022-09-03T01:15:54.454Z,17.98
2022-09-03T01:26:22.933Z,18.04
2022-09-03T01:29:22.211Z,18.04
2022-09-03T01:32:15.355Z,18.00
2022-09-03T01:45:31.605Z,17.87
2022-09-03T01:48:24.408Z,17.87
2022-09-03T01:51:02.494Z,17.88
2022-09-03T01:53:45.749Z,17.92
2022-09-03T01:56:50.692Z,17.93
2022-09-03T01:59:35.581Z,17.93
2022-09-03T02:02:12.780Z,17.94
2022-09-03T02:04:40.386Z,17.93
2022-09-03T02:07:08.236Z,17.93
2022-09-03T02:09:35.793Z,17.93
2022-09-03T02:12:18.719Z,17.92
2022-09-03T02:14:47.388Z,17.91
2022-09-03T02:17:14.987Z,17.91
2022-09-03T02:19:42.654Z,17.89
2022-09-03T02:22:10.646Z,17.88
2022-09-03T02:24:38.487Z,17.86
2022-09-03T02:27:06.269Z,17.86
2022-09-03T02:29:34.123Z,17.87
2022-09-03T02:32:01.910Z,17.88
2022-09-03T02:34:30.460Z,17.89
2022-09-03T02:36:58.284Z,17.90
2022-09-03T02:39:27.684Z,17.89
2022-09-03T02:41:57.583Z,17.89
2022-09-03T02:44:34.624Z,17.90
2022-09-03T02:47:07.426Z,17.89
2022-09-03T02:49:35.935Z,17.89
2022-09-03T02:52:11.895Z,17.89
2022-09-03T02:54:40.900Z,17.88
2022-09-03T02:57:11.320Z,17.87
2022-09-03T02:59:39.887Z,17.87
2022-09-03T03:02:08.757Z,17.85
2022-09-03T03:04:36.453Z,17.84
2022-09-03T03:07:04.639Z,17.83
2022-09-03T03:09:32.633Z,17.82
2022-09-03T03:12:00.288Z,17.82
2022-09-03T03:14:27.959Z,17.81
2022-09-03T03:16:55.832Z,17.80
2022-09-03T03:19:23.492Z,17.82
2022-09-03T03:21:51.045Z,17.82
2022-09-03T03:24:18.991Z,17.82
2022-09-03T03:26:46.579Z,17.80
2022-09-03T03:29:18.013Z,17.81
2022-09-03T03:31:45.915Z,17.80
2022-09-03T03:34:13.450Z,17.80
2022-09-03T03:36:41.058Z,17.78
2022-09-03T03:39:11.398Z,17.78
2022-09-03T03:41:39.306Z,17.79
2022-09-03T03:44:08.435Z,17.79
2022-09-03T03:46:40.887Z,17.77
2022-09-03T03:49:26.773Z,17.73
2022-09-03T03:51:54.591Z,17.72
2022-09-03T03:54:22.537Z,17.74
2022-09-03T03:56:55.591Z,17.76
2022-09-03T03:59:23.829Z,17.76
2022-09-03T04:01:55.214Z,17.77
2022-09-03T04:04:23.094Z,17.75
2022-09-03T04:06:50.888Z,17.75
2022-09-03T04:09:18.474Z,17.76
2022-09-03T04:11:45.987Z,17.76
2022-09-03T04:14:13.842Z,17.73
2022-09-03T04:16:41.450Z,17.73
2022-09-03T04:19:09.072Z,17.72
2022-09-03T04:21:36.970Z,17.71
2022-09-03T04:24:05.746Z,17.67
2022-09-03T04:26:34.304Z,17.65
2022-09-03T04:29:05.254Z,17.61
2022-09-03T04:31:34.564Z,17.55
2022-09-03T04:34:02.656Z,17.53
2022-09-03T04:36:31.592Z,17.51
2022-09-03T04:39:01.841Z,17.49
2022-09-03T04:41:31.648Z,17.48
2022-09-03T04:44:00.453Z,17.47
2022-09-03T04:46:33.473Z,17.46
2022-09-03T04:49:02.761Z,17.48
2022-09-03T04:51:31.716Z,17.46
2022-09-03T04:54:02.292Z,17.46
2022-09-03T04:56:39.884Z,17.47
2022-09-03T04:59:09.940Z,17.46
2022-09-03T05:01:39.900Z,17.47
2022-09-03T05:04:08.743Z,17.50
2022-09-03T05:06:37.421Z,17.52
2022-09-03T05:09:06.646Z,17.58
2022-09-03T05:11:34.356Z,17.62
2022-09-03T05:14:02.097Z,17.67
2022-09-03T05:16:31.124Z,17.72
2022-09-03T05:19:01.260Z,17.74
2022-09-03T05:21:30.770Z,17.80
2022-09-03T05:24:01.776Z,17.85
2022-09-03T05:26:36.604Z,17.89
2022-09-03T05:29:07.937Z,17.99
2022-09-03T05:31:39.294Z,18.02
2022-09-03T05:34:08.388Z,18.08
2022-09-03T05:36:38.348Z,18.16
2022-09-03T05:39:06.804Z,18.21
2022-09-03T05:41:35.006Z,18.27
2022-09-03T05:44:04.031Z,18.33
2022-09-03T05:46:33.710Z,18.38
2022-09-03T05:49:06.928Z,18.43
2022-09-03T05:51:37.295Z,18.49
2022-09-03T05:54:05.544Z,18.53
2022-09-03T05:56:35.766Z,18.59
2022-09-03T05:59:07.507Z,18.64
2022-09-03T06:01:50.307Z,18.68
2022-09-03T06:04:20.595Z,18.71
2022-09-03T06:06:49.047Z,18.76
2022-09-03T06:09:19.972Z,18.78
2022-09-03T06:11:50.155Z,18.81
2022-09-03T06:14:18.546Z,18.73
2022-09-03T06:16:49.975Z,18.74
2022-09-03T06:19:18.325Z,18.78
2022-09-03T06:21:47.450Z,18.84
2022-09-03T06:24:28.064Z,18.89
2022-09-03T06:26:57.400Z,18.92
2022-09-03T06:29:25.552Z,18.95
2022-09-03T06:31:53.270Z,18.98
2022-09-03T06:34:22.780Z,19.01
2022-09-03T06:36:54.610Z,19.03
2022-09-03T06:39:22.885Z,19.03
2022-09-03T06:41:52.098Z,19.09
2022-09-03T06:44:27.515Z,19.18
2022-09-03T06:46:55.179Z,19.22
2022-09-03T06:49:23.048Z,19.30
2022-09-03T06:51:50.907Z,19.38
2022-09-03T06:54:19.080Z,19.43
2022-09-03T06:56:46.654Z,19.48
2022-09-03T06:59:15.423Z,19.55
2022-09-03T07:01:46.287Z,19.60
2022-09-03T07:04:20.432Z,19.65
2022-09-03T07:06:48.693Z,19.71
2022-09-03T07:09:18.336Z,19.75
2022-09-03T07:11:48.331Z,19.73
2022-09-03T07:14:21.455Z,19.75
2022-09-03T07:16:50.432Z,19.72
2022-09-03T07:19:18.673Z,19.74
2022-09-03T07:21:50.934Z,19.77
2022-09-03T07:24:22.264Z,19.69
2022-09-03T07:26:51.701Z,19.65
2022-09-03T07:29:22.662Z,19.62
2022-09-03T07:31:52.356Z,19.58
2022-09-03T07:34:25.607Z,19.64
2022-09-03T07:36:54.907Z,19.62
2022-09-03T07:39:22.659Z,19.61
2022-09-03T07:41:50.693Z,19.62
2022-09-03T07:44:20.090Z,19.65
2022-09-03T07:46:51.347Z,19.70
2022-09-03T07:49:21.204Z,19.74
2022-09-03T07:51:52.374Z,19.79
2022-09-03T07:54:21.737Z,19.82
2022-09-03T07:56:49.975Z,19.91
2022-09-03T07:59:18.027Z,20.00
2022-09-03T08:01:45.559Z,20.03
2022-09-03T08:04:13.543Z,20.03
2022-09-03T08:06:42.300Z,20.05
2022-09-03T08:09:13.747Z,20.04
2022-09-03T08:11:43.885Z,19.99
2022-09-03T08:14:14.048Z,19.92
2022-09-03T08:16:47.961Z,19.95
2022-09-03T08:19:18.575Z,20.07
2022-09-03T08:21:46.618Z,20.20
2022-09-03T08:24:18.179Z,20.34
2022-09-03T08:26:51.337Z,20.43
2022-09-03T08:29:21.360Z,20.54
2022-09-03T08:31:49.168Z,20.69
2022-09-03T08:34:17.989Z,20.81
2022-09-03T08:36:47.335Z,20.92
2022-09-03T08:39:16.167Z,20.89
2022-09-03T08:42:26.760Z,20.83
2022-09-03T08:45:02.757Z,20.79
2022-09-03T08:47:48.360Z,20.81
2022-09-03T08:50:56.178Z,20.87
2022-09-03T08:53:46.880Z,20.92
2022-09-03T08:56:32.244Z,20.99
2022-09-03T08:59:02.049Z,21.01
2022-09-03T09:02:20.824Z,21.11
2022-09-03T09:05:20.787Z,21.21
2022-09-03T09:07:53.525Z,21.36
2022-09-03T09:10:48.050Z,21.45
2022-09-03T09:13:54.190Z,21.52
2022-09-03T09:16:46.169Z,21.62
2022-09-03T09:28:38.398Z,21.80
2022-09-03T09:31:12.603Z,21.83
2022-09-03T09:33:40.257Z,21.74
2022-09-03T09:36:17.116Z,21.76
2022-09-03T09:38:47.390Z,21.81
2022-09-03T09:41:28.980Z,21.82
2022-09-03T09:44:03.406Z,21.79
2022-09-03T09:46:54.138Z,21.75
2022-09-03T09:49:56.171Z,21.75
2022-09-03T09:52:29.437Z,21.72
2022-09-03T09:55:11.241Z,21.70
2022-09-03T09:57:40.454Z,21.69
2022-09-03T10:00:16.016Z,21.71
2022-09-03T10:02:54.546Z,21.75
2022-09-03T10:05:26.559Z,21.79
2022-09-03T10:08:02.171Z,21.81
2022-09-03T10:10:35.062Z,21.80
2022-09-03T10:13:12.744Z,21.81
2022-09-03T10:15:55.855Z,21.88
2022-09-03T10:18:44.786Z,22.01
2022-09-03T10:21:51.421Z,22.10
2022-09-03T10:24:42.353Z,22.19
2022-09-03T10:27:14.367Z,22.18
2022-09-03T10:29:42.524Z,22.15
2022-09-03T10:32:44.946Z,22.13
2022-09-03T10:35:39.607Z,22.02
2022-09-03T10:38:31.517Z,21.95
2022-09-03T10:41:05.116Z,21.90
2022-09-03T10:44:12.478Z,21.87
2022-09-03T10:46:52.215Z,21.89
2022-09-03T10:50:04.432Z,21.97
2022-09-03T10:53:12.152Z,22.09
2022-09-03T10:56:02.736Z,22.16
2022-09-03T10:58:49.957Z,22.23
2022-09-03T11:01:47.916Z,22.27
2022-09-03T11:04:19.976Z,22.33
2022-09-03T11:06:54.958Z,22.37
2022-09-03T11:09:40.436Z,22.44
2022-09-03T11:12:23.223Z,22.41
2022-09-03T11:14:59.832Z,22.45
2022-09-03T11:17:38.808Z,22.52
2022-09-03T11:20:15.634Z,22.53
2022-09-03T11:22:45.318Z,22.53
2022-09-03T11:25:20.421Z,22.57
2022-09-03T11:28:03.381Z,22.64
2022-09-03T11:30:41.017Z,22.65
2022-09-03T11:33:11.778Z,22.67
2022-09-03T11:35:42.954Z,22.69
2022-09-03T11:38:16.910Z,22.72
2022-09-03T11:41:16.035Z,22.73
2022-09-03T11:43:44.373Z,22.76
2022-09-03T11:46:21.804Z,22.77
2022-09-03T11:48:56.542Z,22.83
2022-09-03T11:51:33.986Z,22.89
2022-09-03T11:54:03.200Z,23.02
2022-09-03T11:56:35.919Z,23.20
2022-09-03T11:59:13.627Z,23.38
2022-09-03T12:02:01.703Z,23.58
2022-09-03T12:04:49.268Z,23.74
2022-09-03T12:07:49.797Z,24.00
2022-09-03T12:10:41.790Z,24.22
2022-09-03T12:13:30.170Z,24.45
2022-09-03T12:16:27.450Z,24.63
2022-09-03T12:19:04.555Z,24.77
2022-09-03T12:21:50.803Z,24.96
2022-09-03T12:24:20.323Z,25.09
2022-09-03T12:26:48.034Z,25.11
2022-09-03T12:29:27.870Z,25.10
2022-09-03T12:32:06.179Z,25.07
2022-09-03T12:34:33.950Z,25.00
2022-09-03T12:37:03.482Z,24.95
2022-09-03T12:42:28.348Z,24.77
2022-09-03T12:44:56.495Z,24.71
2022-09-03T12:47:35.691Z,24.63
2022-09-03T12:50:25.454Z,24.60
2022-09-03T12:52:56.344Z,24.55
2022-09-03T12:55:35.370Z,24.49
2022-09-03T12:58:21.673Z,24.49
2022-09-03T13:01:00.036Z,24.51
2022-09-03T13:03:58.728Z,24.59
2022-09-03T13:06:33.539Z,24.64
2022-09-03T13:09:08.592Z,24.63
2022-09-03T13:11:37.358Z,24.60
2022-09-03T13:14:05.865Z,24.61
2022-09-03T13:16:45.550Z,24.57
2022-09-03T13:19:46.234Z,24.52
2022-09-03T13:23:10.476Z,24.45
2022-09-03T13:26:16.297Z,24.42
2022-09-03T13:28:57.570Z,24.37
2022-09-03T13:32:01.696Z,24.33
2022-09-03T13:34:35.443Z,24.30
2022-09-03T14:11:21.380Z,24.74
2022-09-03T14:14:03.131Z,24.58
2022-09-03T14:17:08.906Z,24.44
2022-09-03T14:20:00.345Z,24.28
2022-09-03T14:22:43.670Z,24.20
2022-09-03T14:25:25.075Z,24.12
2022-09-03T14:27:55.570Z,24.07
2022-09-03T14:30:48.115Z,24.04
2022-09-03T14:34:11.875Z,24.04
2022-09-03T14:36:53.350Z,24.05
2022-09-03T14:39:59.157Z,24.06
2022-09-03T14:43:00.741Z,24.08
2022-09-03T14:45:50.946Z,24.08
2022-09-03T14:48:55.996Z,24.09
2022-09-03T14:51:56.606Z,24.12
2022-09-03T14:54:46.292Z,24.13
2022-09-03T14:57:32.166Z,24.15
2022-09-03T15:00:31.566Z,24.15
2022-09-03T15:03:43.039Z,24.14
2022-09-03T15:06:40.937Z,24.11
2022-09-03T15:10:19.216Z,24.12
2022-09-03T15:12:52.175Z,24.11
2022-09-03T15:15:45.850Z,24.10
2022-09-03T15:18:38.550Z,24.12
2022-09-03T15:21:40.334Z,24.14
2022-09-03T15:24:32.622Z,24.14
2022-09-03T15:27:43.165Z,24.13
2022-09-03T15:30:21.057Z,24.09
2022-09-03T15:33:40.040Z,24.08
2022-09-03T15:36:26.717Z,24.04
2022-09-03T15:42:19.300Z,23.97
2022-09-03T15:44:52.737Z,23.92
2022-09-03T16:27:08.752Z,23.44
2022-09-03T16:29:39.980Z,23.41
2022-09-03T16:32:16.670Z,23.38
2022-09-03T16:34:57.244Z,23.35
2022-09-03T16:38:06.016Z,23.29
2022-09-03T16:40:42.924Z,23.23
2022-09-03T16:43:40.243Z,23.13
2022-09-03T16:46:23.876Z,23.04
2022-09-03T16:49:09.767Z,22.97
2022-09-03T16:51:52.805Z,22.93
2022-09-03T16:54:55.898Z,22.89
2022-09-03T16:57:59.110Z,22.87
2022-09-03T17:01:09.940Z,22.81
2022-09-03T17:04:02.341Z,22.75
2022-09-03T17:07:01.074Z,22.66
2022-09-03T17:09:28.807Z,22.58
2022-09-03T17:12:20.776Z,22.49
2022-09-03T17:15:11.972Z,22.39
2022-09-03T17:17:46.411Z,22.27
2022-09-03T17:20:47.164Z,22.13
2022-09-03T17:24:03.557Z,22.02
2022-09-03T17:27:13.077Z,21.84
2022-09-03T17:29:43.119Z,21.71
2022-09-03T17:32:37.348Z,21.61
2022-09-03T17:35:26.159Z,21.49
2022-09-03T17:37:55.168Z,21.40
2022-09-03T17:41:13.383Z,21.31
2022-09-03T17:44:26.103Z,21.17
2022-09-03T17:47:05.328Z,21.12
2022-09-03T17:49:54.688Z,21.07
2022-09-03T17:52:49.693Z,21.01
2022-09-03T17:55:45.417Z,20.92
2022-09-03T17:58:31.015Z,20.88
2022-09-03T18:01:21.582Z,20.85
2022-09-03T18:04:14.087Z,20.81
2022-09-03T18:06:42.051Z,20.79
2022-09-03T18:09:52.427Z,20.74
2022-09-03T18:12:38.888Z,20.68
2022-09-03T18:15:18.972Z,20.63
2022-09-03T18:18:05.192Z,20.55
2022-09-03T18:21:23.289Z,20.46
2022-09-03T18:24:33.776Z,20.40
2022-09-03T18:27:51.788Z,20.34
2022-09-03T18:30:44.123Z,20.28
2022-09-03T18:33:38.680Z,20.22
2022-09-03T18:36:25.440Z,20.17
2022-09-03T18:39:11.738Z,20.12
2022-09-03T18:42:29.702Z,20.06
2022-09-03T18:46:34.612Z,20.04
2022-09-03T18:49:12.778Z,19.99
2022-09-03T18:52:45.727Z,19.95
2022-09-03T18:55:55.928Z,19.92
2022-09-03T18:58:51.705Z,19.89
2022-09-03T19:01:58.738Z,19.88
2022-09-03T19:05:44.564Z,19.88
2022-09-03T19:08:47.617Z,19.87
2022-09-03T19:11:53.526Z,19.85
2022-09-03T19:14:53.958Z,19.85
2022-09-03T19:18:14.091Z,19.85
2022-09-03T19:21:27.165Z,19.82
2022-09-03T19:24:21.050Z,19.82
2022-09-03T19:27:47.695Z,19.82
2022-09-03T19:30:42.221Z,19.81
2022-09-03T19:33:45.540Z,19.82
2022-09-03T19:37:10.311Z,19.80
2022-09-03T19:40:05.609Z,19.75
2022-09-03T19:43:13.117Z,19.73
2022-09-03T19:46:05.585Z,19.70
2022-09-03T19:49:17.236Z,19.66
2022-09-03T19:52:09.499Z,19.63
2022-09-03T19:54:57.445Z,19.61
2022-09-03T19:57:48.395Z,19.59
2022-09-03T20:00:35.975Z,19.60
2022-09-03T20:03:24.617Z,19.60
2022-09-03T20:06:11.891Z,19.59
2022-09-03T20:09:01.435Z,19.58
2022-09-03T20:11:31.139Z,19.55
2022-09-03T20:14:15.267Z,19.55
2022-09-03T20:17:04.956Z,19.55
2022-09-03T20:19:48.902Z,19.54
2022-09-03T20:22:29.186Z,19.54
2022-09-03T20:25:26.969Z,19.59
2022-09-03T20:28:32.991Z,19.62
2022-09-03T20:31:17.347Z,19.66
2022-09-03T20:34:24.635Z,19.70
2022-09-03T20:37:50.806Z,19.74
2022-09-03T20:40:52.414Z,19.84
2022-09-03T20:43:40.885Z,19.90
2022-09-03T20:46:41.318Z,19.90
2022-09-03T20:50:03.856Z,19.87
2022-09-03T20:53:05.471Z,19.86
2022-09-03T20:56:17.107Z,19.86
2022-09-03T20:59:32.651Z,19.86
2022-09-03T21:02:19.196Z,19.86
2022-09-03T21:41:26.859Z,19.43
2022-09-03T21:44:19.235Z,19.44
2022-09-03T21:46:57.030Z,19.49
2022-09-03T21:49:39.994Z,19.52
2022-09-03T21:52:21.392Z,19.54
2022-09-03T21:55:21.835Z,19.54
2022-09-03T21:58:38.895Z,19.56
2022-09-03T22:01:27.284Z,19.57
2022-09-03T22:03:55.896Z,19.59
2022-09-03T22:07:11.877Z,19.61
2022-09-03T22:10:10.735Z,19.61
2022-09-03T22:12:38.406Z,19.60
2022-09-03T22:15:13.308Z,19.59
2022-09-03T22:18:07.431Z,19.64
2022-09-03T22:20:37.132Z,19.69
2022-09-03T22:23:20.477Z,19.71
2022-09-03T22:26:10.998Z,19.74
2022-09-03T22:28:49.372Z,19.78
2022-09-03T22:31:37.846Z,19.84
2022-09-03T22:34:42.263Z,19.87
2022-09-03T22:37:52.616Z,19.88
2022-09-03T22:40:40.102Z,19.91
2022-09-03T22:43:32.222Z,19.91
2022-09-03T22:46:13.022Z,19.93
2022-09-03T22:49:14.305Z,19.93
2022-09-03T22:52:26.528Z,19.94
2022-09-03T22:55:26.073Z,19.91
2022-09-03T22:58:11.534Z,19.83
2022-09-03T23:00:48.255Z,19.75
2022-09-03T23:03:27.552Z,19.69
2022-09-03T23:06:07.032Z,19.62
2022-09-03T23:08:59.023Z,19.57
2022-09-03T23:11:51.654Z,19.51
2022-09-03T23:14:32.307Z,19.44
2022-09-03T23:17:13.368Z,19.40
2022-09-03T23:19:47.220Z,19.37
2022-09-03T23:22:44.871Z,19.34
2022-09-03T23:25:42.141Z,19.31
2022-09-03T23:28:14.977Z,19.30
2022-09-03T23:30:43.030Z,19.31
2022-09-03T23:33:10.741Z,19.30
2022-09-03T23:36:43.326Z,19.30
2022-09-03T23:39:53.208Z,19.30
2022-09-03T23:43:03.937Z,19.29
2022-09-03T23:46:08.035Z,19.27
2022-09-03T23:48:54.241Z,19.25
2022-09-03T23:51:38.133Z,19.26
2022-09-03T23:54:29.838Z,19.26
2022-09-03T23:57:04.370Z,19.24
2022-09-03T23:59:52.435Z,19.24
